Leduc, Canada
Current Conditions -  °F | °C
As of 4:00 AM on Monday 22 Dec 2014 (Local Time) from CYEG Reporting Station
Scattered Clouds Scattered Clouds  
Wind Chill: 18°   Ceiling: Unl
Heat Index: 27°   Visibility: 15mi
Dew Point: 23°   Wind: 8mph
Humidity: 86%   Direction: 280°W
Pressure: 29.67"   Gusts: NA
Location:  53.27°N, 113.53°W
Report Text: CYEG 221100Z 28007KT 15SM FEW080 SCT200 M03/M05 A2967 RMK AC1CI3 SLP085
Loading
Personal Weather Stations






























Interactive Weather Map New forecast layout! Learn more

10-Day Weather Forecast

Advertisements
Track Severe Weather on mobile